sensor_id;sensor_type;location;lat;lon;timestamp;temperature;humidity
21417;DHT22;10869;52.238;10.716;2024-03-23T00:54:13;7.00;99.90
21417;DHT22;10869;52.238;10.716;2024-03-23T00:56:39;7.00;99.90
21417;DHT22;10869;52.238;10.716;2024-03-23T00:59:06;6.90;99.90
21417;DHT22;10869;52.238;10.716;2024-03-23T01:01:32;6.80;99.90
21417;DHT22;10869;52.238;10.716;2024-03-23T01:03:57;6.80;99.90
21417;DHT22;10869;52.238;10.716;2024-03-23T01:06:23;6.80;99.90
21417;DHT22;10869;52.238;10.716;2024-03-23T01:08:50;6.80;99.90
21417;DHT22;10869;52.238;10.716;2024-03-23T01:11:17;6.80;99.90
21417;DHT22;10869;52.238;10.716;2024-03-23T01:13:43;6.80;99.90
21417;DHT22;10869;52.238;10.716;2024-03-23T01:16:09;6.80;99.90
21417;DHT22;10869;52.238;10.716;2024-03-23T01:18:35;6.70;99.90
21417;DHT22;10869;52.238;10.716;2024-03-23T01:21:01;6.80;99.90
21417;DHT22;10869;52.238;10.716;2024-03-23T01:23:27;6.70;99.90
21417;DHT22;10869;52.238;10.716;2024-03-23T01:25:53;6.70;99.90
21417;DHT22;10869;52.238;10.716;2024-03-23T01:28:20;6.70;99.90
21417;DHT22;10869;52.238;10.716;2024-03-23T01:30:47;6.70;99.90
21417;DHT22;10869;52.238;10.716;2024-03-23T01:33:13;6.60;99.90
21417;DHT22;10869;52.238;10.716;2024-03-23T01:35:39;6.60;99.90
21417;DHT22;10869;52.238;10.716;2024-03-23T01:38:05;6.60;99.90
21417;DHT22;10869;52.238;10.716;2024-03-23T01:40:32;6.60;99.90
21417;DHT22;10869;52.238;10.716;2024-03-23T01:42:59;6.60;99.90
21417;DHT22;10869;52.238;10.716;2024-03-23T01:45:27;6.60;99.90
21417;DHT22;10869;52.238;10.716;2024-03-23T01:47:53;6.60;99.90
21417;DHT22;10869;52.238;10.716;2024-03-23T01:50:20;6.60;99.90
21417;DHT22;10869;52.238;10.716;2024-03-23T01:52:47;6.50;99.90
21417;DHT22;10869;52.238;10.716;2024-03-23T01:55:13;6.50;99.90
21417;DHT22;10869;52.238;10.716;2024-03-23T01:57:39;6.50;99.90
21417;DHT22;10869;52.238;10.716;2024-03-23T02:00:06;6.60;99.90
21417;DHT22;10869;52.238;10.716;2024-03-23T02:02:32;6.60;99.90
21417;DHT22;10869;52.238;10.716;2024-03-23T02:04:58;6.60;99.90
21417;DHT22;10869;52.238;10.716;2024-03-23T02:07:24;6.60;99.90
21417;DHT22;10869;52.238;10.716;2024-03-23T02:09:51;6.60;99.90
21417;DHT22;10869;52.238;10.716;2024-03-23T02:12:20;6.60;99.90
21417;DHT22;10869;52.238;10.716;2024-03-23T02:14:46;6.60;99.90
21417;DHT22;10869;52.238;10.716;2024-03-23T02:17:13;6.60;99.90
21417;DHT22;10869;52.238;10.716;2024-03-23T02:19:39;6.60;99.90
21417;DHT22;10869;52.238;10.716;2024-03-23T02:22:05;6.60;99.90
21417;DHT22;10869;52.238;10.716;2024-03-23T02:24:31;6.60;99.90
21417;DHT22;10869;52.238;10.716;2024-03-23T02:26:57;6.60;99.90
21417;DHT22;10869;52.238;10.716;2024-03-23T02:29:22;6.60;99.90
21417;DHT22;10869;52.238;10.716;2024-03-23T02:31:48;6.60;99.90
21417;DHT22;10869;52.238;10.716;2024-03-23T02:34:14;6.60;99.90
21417;DHT22;10869;52.238;10.716;2024-03-23T02:40:02;6.60;99.90
21417;DHT22;10869;52.238;10.716;2024-03-23T02:42:28;6.60;99.90
21417;DHT22;10869;52.238;10.716;2024-03-23T02:44:54;6.60;99.90
21417;DHT22;10869;52.238;10.716;2024-03-23T02:47:20;6.60;99.90
21417;DHT22;10869;52.238;10.716;2024-03-23T02:49:46;6.60;99.90
21417;DHT22;10869;52.238;10.716;2024-03-23T02:52:12;6.60;99.90
21417;DHT22;10869;52.238;10.716;2024-03-23T02:54:37;6.60;99.90
21417;DHT22;10869;52.238;10.716;2024-03-23T02:57:03;6.60;99.90
21417;DHT22;10869;52.238;10.716;2024-03-23T02:59:30;6.50;99.90
21417;DHT22;10869;52.238;10.716;2024-03-23T03:01:56;6.50;99.90
21417;DHT22;10869;52.238;10.716;2024-03-23T03:04:21;6.50;99.90
21417;DHT22;10869;52.238;10.716;2024-03-23T03:06:48;6.50;99.90
21417;DHT22;10869;52.238;10.716;2024-03-23T03:09:14;6.50;99.90
21417;DHT22;10869;52.238;10.716;2024-03-23T03:11:40;6.50;99.90
21417;DHT22;10869;52.238;10.716;2024-03-23T03:14:06;6.50;99.90
21417;DHT22;10869;52.238;10.716;2024-03-23T03:16:33;6.40;99.90
21417;DHT22;10869;52.238;10.716;2024-03-23T03:18:59;6.40;99.90
21417;DHT22;10869;52.238;10.716;2024-03-23T03:21:25;6.40;99.90
21417;DHT22;10869;52.238;10.716;2024-03-23T03:23:51;6.40;99.90
21417;DHT22;10869;52.238;10.716;2024-03-23T03:26:17;6.40;99.90
21417;DHT22;10869;52.238;10.716;2024-03-23T03:28:43;6.40;99.90
21417;DHT22;10869;52.238;10.716;2024-03-23T03:31:17;6.30;99.90
21417;DHT22;10869;52.238;10.716;2024-03-23T03:33:44;6.30;99.90
21417;DHT22;10869;52.238;10.716;2024-03-23T03:36:10;6.30;99.90
21417;DHT22;10869;52.238;10.716;2024-03-23T03:38:36;6.30;99.90
21417;DHT22;10869;52.238;10.716;2024-03-23T03:41:02;6.30;99.90
21417;DHT22;10869;52.238;10.716;2024-03-23T03:43:28;6.30;99.90
21417;DHT22;10869;52.238;10.716;2024-03-23T03:45:55;6.20;99.90
21417;DHT22;10869;52.238;10.716;2024-03-23T03:48:22;6.20;99.90
21417;DHT22;10869;52.238;10.716;2024-03-23T03:50:48;6.20;99.90
21417;DHT22;10869;52.238;10.716;2024-03-23T03:53:14;6.20;99.90
21417;DHT22;10869;52.238;10.716;2024-03-23T03:55:40;6.20;99.90
21417;DHT22;10869;52.238;10.716;2024-03-23T03:58:06;6.20;99.90
21417;DHT22;10869;52.238;10.716;2024-03-23T04:00:32;6.20;99.90
21417;DHT22;10869;52.238;10.716;2024-03-23T04:02:58;6.20;99.90
21417;DHT22;10869;52.238;10.716;2024-03-23T04:05:24;6.20;99.90
21417;DHT22;10869;52.238;10.716;2024-03-23T04:07:50;6.20;99.90
21417;DHT22;10869;52.238;10.716;2024-03-23T04:10:15;6.10;99.90
21417;DHT22;10869;52.238;10.716;2024-03-23T04:12:42;6.10;99.90
21417;DHT22;10869;52.238;10.716;2024-03-23T04:15:08;6.10;99.90
21417;DHT22;10869;52.238;10.716;2024-03-23T04:17:34;6.20;99.90
21417;DHT22;10869;52.238;10.716;2024-03-23T04:20:01;6.20;99.90
21417;DHT22;10869;52.238;10.716;2024-03-23T04:22:27;6.20;99.90
21417;DHT22;10869;52.238;10.716;2024-03-23T04:24:56;6.20;99.90
21417;DHT22;10869;52.238;10.716;2024-03-23T04:27:25;6.10;99.90
21417;DHT22;10869;52.238;10.716;2024-03-23T04:29:52;6.10;99.90
21417;DHT22;10869;52.238;10.716;2024-03-23T04:32:20;6.10;99.90
21417;DHT22;10869;52.238;10.716;2024-03-23T04:34:46;6.10;99.90
21417;DHT22;10869;52.238;10.716;2024-03-23T04:37:12;6.10;99.90
21417;DHT22;10869;52.238;10.716;2024-03-23T04:39:38;6.10;99.90
21417;DHT22;10869;52.238;10.716;2024-03-23T04:42:04;6.10;99.90
21417;DHT22;10869;52.238;10.716;2024-03-23T04:44:30;6.10;99.90
21417;DHT22;10869;52.238;10.716;2024-03-23T04:46:57;6.10;99.90
21417;DHT22;10869;52.238;10.716;2024-03-23T04:49:23;6.10;99.90
21417;DHT22;10869;52.238;10.716;2024-03-23T04:51:49;6.10;99.90
21417;DHT22;10869;52.238;10.716;2024-03-23T04:54:15;6.10;99.90
21417;DHT22;10869;52.238;10.716;2024-03-23T04:56:41;6.00;99.90
21417;DHT22;10869;52.238;10.716;2024-03-23T04:59:07;6.00;99.90
21417;DHT22;10869;52.238;10.716;2024-03-23T05:01:33;6.00;99.90
21417;DHT22;10869;52.238;10.716;2024-03-23T05:07:21;6.00;99.90
21417;DHT22;10869;52.238;10.716;2024-03-23T05:09:46;6.00;99.90
21417;DHT22;10869;52.238;10.716;2024-03-23T05:12:14;6.00;99.90
21417;DHT22;10869;52.238;10.716;2024-03-23T05:14:39;5.90;99.90
21417;DHT22;10869;52.238;10.716;2024-03-23T05:17:05;6.00;99.90
21417;DHT22;10869;52.238;10.716;2024-03-23T05:19:31;5.90;99.90
21417;DHT22;10869;52.238;10.716;2024-03-23T05:21:57;6.00;99.90
21417;DHT22;10869;52.238;10.716;2024-03-23T05:24:22;5.90;99.90
21417;DHT22;10869;52.238;10.716;2024-03-23T05:26:48;6.00;99.90
21417;DHT22;10869;52.238;10.716;2024-03-23T05:29:14;6.00;99.90
21417;DHT22;10869;52.238;10.716;2024-03-23T05:31:42;5.90;99.90
21417;DHT22;10869;52.238;10.716;2024-03-23T05:34:09;5.90;99.90
21417;DHT22;10869;52.238;10.716;2024-03-23T05:36:35;5.90;99.90
21417;DHT22;10869;52.238;10.716;2024-03-23T05:39:01;5.90;99.90
21417;DHT22;10869;52.238;10.716;2024-03-23T05:44:49;5.90;99.90
21417;DHT22;10869;52.238;10.716;2024-03-23T05:47:15;5.90;99.90
21417;DHT22;10869;52.238;10.716;2024-03-23T05:53:07;5.90;99.90
21417;DHT22;10869;52.238;10.716;2024-03-23T05:56:01;5.90;99.90
21417;DHT22;10869;52.238;10.716;2024-03-23T06:08:55;5.90;99.90
21417;DHT22;10869;52.238;10.716;2024-03-23T06:11:21;5.90;99.90
21417;DHT22;10869;52.238;10.716;2024-03-23T06:13:47;5.80;99.90
21417;DHT22;10869;52.238;10.716;2024-03-23T06:16:12;5.80;99.90
21417;DHT22;10869;52.238;10.716;2024-03-23T06:18:39;5.80;99.90
21417;DHT22;10869;52.238;10.716;2024-03-23T06:21:05;5.80;99.90
21417;DHT22;10869;52.238;10.716;2024-03-23T06:23:41;5.80;99.90
21417;DHT22;10869;52.238;10.716;2024-03-23T06:26:07;5.70;99.90
21417;DHT22;10869;52.238;10.716;2024-03-23T06:28:34;5.70;99.90
21417;DHT22;10869;52.238;10.716;2024-03-23T06:34:21;5.70;99.90
21417;DHT22;10869;52.238;10.716;2024-03-23T06:36:48;5.70;99.90
21417;DHT22;10869;52.238;10.716;2024-03-23T06:42:37;5.50;99.90
21417;DHT22;10869;52.238;10.716;2024-03-23T06:48:25;5.40;99.90
21417;DHT22;10869;52.238;10.716;2024-03-23T06:54:14;5.30;99.90
21417;DHT22;10869;52.238;10.716;2024-03-23T07:00:03;5.20;99.90
21417;DHT22;10869;52.238;10.716;2024-03-23T07:05:51;5.30;99.90
21417;DHT22;10869;52.238;10.716;2024-03-23T07:08:17;5.30;99.90
21417;DHT22;10869;52.238;10.716;2024-03-23T07:10:46;5.30;99.90
21417;DHT22;10869;52.238;10.716;2024-03-23T07:16:34;5.40;99.90
21417;DHT22;10869;52.238;10.716;2024-03-23T07:22:22;5.40;99.90
21417;DHT22;10869;52.238;10.716;2024-03-23T07:31:38;5.50;99.90
21417;DHT22;10869;52.238;10.716;2024-03-23T07:37:27;5.60;99.90
21417;DHT22;10869;52.238;10.716;2024-03-23T07:39:52;5.60;99.90
21417;DHT22;10869;52.238;10.716;2024-03-23T07:42:19;5.70;99.90
21417;DHT22;10869;52.238;10.716;2024-03-23T07:48:53;5.90;99.90
21417;DHT22;10869;52.238;10.716;2024-03-23T07:54:40;6.10;99.90
21417;DHT22;10869;52.238;10.716;2024-03-23T07:57:06;6.20;99.90
21417;DHT22;10869;52.238;10.716;2024-03-23T07:59:32;6.20;99.90
21417;DHT22;10869;52.238;10.716;2024-03-23T08:02:00;6.20;99.90
21417;DHT22;10869;52.238;10.716;2024-03-23T08:04:29;6.20;99.90
21417;DHT22;10869;52.238;10.716;2024-03-23T08:06:56;6.20;99.90
21417;DHT22;10869;52.238;10.716;2024-03-23T08:12:46;6.20;99.90
21417;DHT22;10869;52.238;10.716;2024-03-23T08:15:11;6.10;99.90
21417;DHT22;10869;52.238;10.716;2024-03-23T08:17:37;6.10;99.90
21417;DHT22;10869;52.238;10.716;2024-03-23T08:20:07;6.10;99.90
21417;DHT22;10869;52.238;10.716;2024-03-23T08:22:33;6.10;99.90
21417;DHT22;10869;52.238;10.716;2024-03-23T08:24:59;6.00;99.90
21417;DHT22;10869;52.238;10.716;2024-03-23T08:27:25;6.00;99.90
21417;DHT22;10869;52.238;10.716;2024-03-23T08:29:51;6.00;99.90
21417;DHT22;10869;52.238;10.716;2024-03-23T08:32:16;6.00;99.90
21417;DHT22;10869;52.238;10.716;2024-03-23T08:34:42;6.00;99.90
21417;DHT22;10869;52.238;10.716;2024-03-23T08:37:08;6.10;99.90
21417;DHT22;10869;52.238;10.716;2024-03-23T08:39:34;6.10;99.90
21417;DHT22;10869;52.238;10.716;2024-03-23T08:42:00;6.10;99.90
21417;DHT22;10869;52.238;10.716;2024-03-23T08:44:25;6.20;99.90
21417;DHT22;10869;52.238;10.716;2024-03-23T08:50:13;6.30;99.90
21417;DHT22;10869;52.238;10.716;2024-03-23T08:52:39;6.30;99.90
21417;DHT22;10869;52.238;10.716;2024-03-23T08:55:05;6.40;99.90
21417;DHT22;10869;52.238;10.716;2024-03-23T08:57:31;6.40;99.90
21417;DHT22;10869;52.238;10.716;2024-03-23T08:59:57;6.50;99.90
21417;DHT22;10869;52.238;10.716;2024-03-23T09:02:22;6.50;99.90
21417;DHT22;10869;52.238;10.716;2024-03-23T09:08:10;6.70;99.90
21417;DHT22;10869;52.238;10.716;2024-03-23T09:13:58;6.80;99.90
21417;DHT22;10869;52.238;10.716;2024-03-23T09:16:27;6.90;99.90
21417;DHT22;10869;52.238;10.716;2024-03-23T09:18:55;7.10;99.90
21417;DHT22;10869;52.238;10.716;2024-03-23T09:21:24;7.30;99.90
21417;DHT22;10869;52.238;10.716;2024-03-23T09:24:08;7.40;99.90
21417;DHT22;10869;52.238;10.716;2024-03-23T09:26:35;7.50;99.90
21417;DHT22;10869;52.238;10.716;2024-03-23T09:31:54;7.70;99.90
21417;DHT22;10869;52.238;10.716;2024-03-23T09:34:20;7.70;99.90
21417;DHT22;10869;52.238;10.716;2024-03-23T09:36:50;7.60;99.90
21417;DHT22;10869;52.238;10.716;2024-03-23T09:39:17;7.40;99.90
21417;DHT22;10869;52.238;10.716;2024-03-23T09:45:17;6.90;99.90
21417;DHT22;10869;52.238;10.716;2024-03-23T09:47:45;6.50;99.90
21417;DHT22;10869;52.238;10.716;2024-03-23T09:50:13;6.20;99.90
21417;DHT22;10869;52.238;10.716;2024-03-23T09:56:01;6.00;99.90
21417;DHT22;10869;52.238;10.716;2024-03-23T09:58:40;6.10;99.90
21417;DHT22;10869;52.238;10.716;2024-03-23T10:01:09;6.20;99.90
21417;DHT22;10869;52.238;10.716;2024-03-23T10:03:47;6.30;99.90
21417;DHT22;10869;52.238;10.716;2024-03-23T10:06:14;6.40;99.90
21417;DHT22;10869;52.238;10.716;2024-03-23T10:12:20;6.90;99.90
21417;DHT22;10869;52.238;10.716;2024-03-23T10:14:48;7.20;99.90
21417;DHT22;10869;52.238;10.716;2024-03-23T10:19:55;7.50;99.90
21417;DHT22;10869;52.238;10.716;2024-03-23T10:25:50;8.00;99.90
21417;DHT22;10869;52.238;10.716;2024-03-23T10:31:43;8.80;99.90
21417;DHT22;10869;52.238;10.716;2024-03-23T10:34:12;9.30;99.90
21417;DHT22;10869;52.238;10.716;2024-03-23T10:36:40;9.60;99.90
21417;DHT22;10869;52.238;10.716;2024-03-23T10:39:07;9.80;99.90
21417;DHT22;10869;52.238;10.716;2024-03-23T10:41:33;10.10;99.90
21417;DHT22;10869;52.238;10.716;2024-03-23T10:44:02;10.40;99.90
21417;DHT22;10869;52.238;10.716;2024-03-23T10:46:31;10.20;99.90
21417;DHT22;10869;52.238;10.716;2024-03-23T10:52:06;9.20;99.90
21417;DHT22;10869;52.238;10.716;2024-03-23T10:54:32;8.80;99.90
21417;DHT22;10869;52.238;10.716;2024-03-23T11:00:09;8.40;99.90
21417;DHT22;10869;52.238;10.716;2024-03-23T11:02:36;8.10;99.90
21417;DHT22;10869;52.238;10.716;2024-03-23T11:05:05;7.90;99.90
21417;DHT22;10869;52.238;10.716;2024-03-23T11:07:51;7.90;99.90
21417;DHT22;10869;52.238;10.716;2024-03-23T11:10:28;7.90;99.90
21417;DHT22;10869;52.238;10.716;2024-03-23T11:19:34;6.80;99.90
21417;DHT22;10869;52.238;10.716;2024-03-23T11:22:09;6.70;99.90
21417;DHT22;10869;52.238;10.716;2024-03-23T11:24:34;7.10;99.90
21417;DHT22;10869;52.238;10.716;2024-03-23T11:27:00;7.40;99.90
21417;DHT22;10869;52.238;10.716;2024-03-23T11:29:29;7.40;99.90
21417;DHT22;10869;52.238;10.716;2024-03-23T11:31:55;7.70;99.90
21417;DHT22;10869;52.238;10.716;2024-03-23T11:34:24;7.80;99.90
21417;DHT22;10869;52.238;10.716;2024-03-23T11:40:19;7.50;99.90
21417;DHT22;10869;52.238;10.716;2024-03-23T11:42:45;7.30;99.90
21417;DHT22;10869;52.238;10.716;2024-03-23T11:48:32;7.10;99.90
21417;DHT22;10869;52.238;10.716;2024-03-23T11:50:58;7.60;99.90
21417;DHT22;10869;52.238;10.716;2024-03-23T11:53:25;8.20;99.90
21417;DHT22;10869;52.238;10.716;2024-03-23T11:55:56;8.70;99.90
21417;DHT22;10869;52.238;10.716;2024-03-23T11:58:24;9.10;99.90
21417;DHT22;10869;52.238;10.716;2024-03-23T12:01:01;9.20;99.90
21417;DHT22;10869;52.238;10.716;2024-03-23T12:03:31;9.00;99.90
21417;DHT22;10869;52.238;10.716;2024-03-23T12:06:03;8.70;99.90
21417;DHT22;10869;52.238;10.716;2024-03-23T12:12:11;8.00;99.90
21417;DHT22;10869;52.238;10.716;2024-03-23T12:14:40;7.60;99.90
21417;DHT22;10869;52.238;10.716;2024-03-23T12:17:14;7.30;99.90
21417;DHT22;10869;52.238;10.716;2024-03-23T12:19:40;7.10;99.90
21417;DHT22;10869;52.238;10.716;2024-03-23T12:22:11;7.00;99.90
21417;DHT22;10869;52.238;10.716;2024-03-23T12:27:59;8.20;99.90
21417;DHT22;10869;52.238;10.716;2024-03-23T12:30:25;8.70;99.90
21417;DHT22;10869;52.238;10.716;2024-03-23T12:32:51;8.60;99.90
21417;DHT22;10869;52.238;10.716;2024-03-23T12:35:20;8.20;99.90
21417;DHT22;10869;52.238;10.716;2024-03-23T12:41:07;7.60;99.90
21417;DHT22;10869;52.238;10.716;2024-03-23T12:43:35;7.40;99.90
21417;DHT22;10869;52.238;10.716;2024-03-23T12:46:03;7.20;99.90
21417;DHT22;10869;52.238;10.716;2024-03-23T12:48:31;7.10;99.90
21417;DHT22;10869;52.238;10.716;2024-03-23T12:50:57;7.10;99.90
21417;DHT22;10869;52.238;10.716;2024-03-23T12:56:46;7.20;99.90
21417;DHT22;10869;52.238;10.716;2024-03-23T12:59:11;7.50;99.90
21417;DHT22;10869;52.238;10.716;2024-03-23T13:01:38;7.60;99.90
21417;DHT22;10869;52.238;10.716;2024-03-23T13:04:04;7.50;99.90
21417;DHT22;10869;52.238;10.716;2024-03-23T13:06:30;7.50;99.90
21417;DHT22;10869;52.238;10.716;2024-03-23T13:09:00;7.40;99.90
21417;DHT22;10869;52.238;10.716;2024-03-23T13:11:27;7.30;99.90
21417;DHT22;10869;52.238;10.716;2024-03-23T13:13:53;7.10;99.90
21417;DHT22;10869;52.238;10.716;2024-03-23T13:16:18;7.00;99.90
21417;DHT22;10869;52.238;10.716;2024-03-23T13:18:44;6.90;99.90
21417;DHT22;10869;52.238;10.716;2024-03-23T13:21:10;6.80;99.90
21417;DHT22;10869;52.238;10.716;2024-03-23T13:23:36;6.70;99.90
21417;DHT22;10869;52.238;10.716;2024-03-23T13:29:25;6.30;99.90
21417;DHT22;10869;52.238;10.716;2024-03-23T13:31:52;6.00;99.90
21417;DHT22;10869;52.238;10.716;2024-03-23T13:34:18;5.80;99.90
21417;DHT22;10869;52.238;10.716;2024-03-23T13:36:47;5.80;99.90
21417;DHT22;10869;52.238;10.716;2024-03-23T13:39:14;6.00;99.90
21417;DHT22;10869;52.238;10.716;2024-03-23T13:41:42;6.30;99.90
21417;DHT22;10869;52.238;10.716;2024-03-23T13:44:09;6.50;99.90
21417;DHT22;10869;52.238;10.716;2024-03-23T13:46:38;6.90;99.90
21417;DHT22;10869;52.238;10.716;2024-03-23T13:49:05;7.10;99.90
21417;DHT22;10869;52.238;10.716;2024-03-23T13:51:32;7.40;99.90
21417;DHT22;10869;52.238;10.716;2024-03-23T13:53:58;7.70;99.90
21417;DHT22;10869;52.238;10.716;2024-03-23T13:56:27;7.70;99.90
21417;DHT22;10869;52.238;10.716;2024-03-23T13:58:55;7.50;99.90
21417;DHT22;10869;52.238;10.716;2024-03-23T14:01:21;7.30;99.90
21417;DHT22;10869;52.238;10.716;2024-03-23T14:03:49;7.00;99.90
21417;DHT22;10869;52.238;10.716;2024-03-23T14:06:15;6.70;99.90
21417;DHT22;10869;52.238;10.716;2024-03-23T14:08:40;6.50;99.90
21417;DHT22;10869;52.238;10.716;2024-03-23T14:11:08;6.60;99.90
21417;DHT22;10869;52.238;10.716;2024-03-23T14:13:35;7.00;99.90
21417;DHT22;10869;52.238;10.716;2024-03-23T14:16:01;7.50;99.90
21417;DHT22;10869;52.238;10.716;2024-03-23T14:18:27;7.60;99.90
21417;DHT22;10869;52.238;10.716;2024-03-23T14:20:57;7.70;99.90
21417;DHT22;10869;52.238;10.716;2024-03-23T14:23:28;8.00;99.90
21417;DHT22;10869;52.238;10.716;2024-03-23T14:26:00;8.20;99.90
21417;DHT22;10869;52.238;10.716;2024-03-23T14:28:26;8.30;99.90
21417;DHT22;10869;52.238;10.716;2024-03-23T14:30:58;8.40;99.90
21417;DHT22;10869;52.238;10.716;2024-03-23T14:33:57;8.50;99.90
21417;DHT22;10869;52.238;10.716;2024-03-23T14:36:30;8.50;99.90
21417;DHT22;10869;52.238;10.716;2024-03-23T14:38:56;8.40;99.90
21417;DHT22;10869;52.238;10.716;2024-03-23T14:44:44;8.30;99.90
21417;DHT22;10869;52.238;10.716;2024-03-23T14:47:09;8.00;99.90
21417;DHT22;10869;52.238;10.716;2024-03-23T14:52:58;7.80;99.90
21417;DHT22;10869;52.238;10.716;2024-03-23T14:55:24;7.90;99.90
21417;DHT22;10869;52.238;10.716;2024-03-23T15:01:12;7.40;99.90
21417;DHT22;10869;52.238;10.716;2024-03-23T15:07:00;6.80;99.90
21417;DHT22;10869;52.238;10.716;2024-03-23T15:20:21;6.50;99.90
21417;DHT22;10869;52.238;10.716;2024-03-23T15:22:54;6.80;99.90
21417;DHT22;10869;52.238;10.716;2024-03-23T15:25:22;7.10;99.90
21417;DHT22;10869;52.238;10.716;2024-03-23T15:27:49;7.20;99.90
21417;DHT22;10869;52.238;10.716;2024-03-23T15:30:16;7.10;99.90
21417;DHT22;10869;52.238;10.716;2024-03-23T15:32:42;7.10;99.90
21417;DHT22;10869;52.238;10.716;2024-03-23T15:35:07;7.00;99.90
21417;DHT22;10869;52.238;10.716;2024-03-23T15:37:33;6.90;99.90
21417;DHT22;10869;52.238;10.716;2024-03-23T15:40:00;6.90;99.90
21417;DHT22;10869;52.238;10.716;2024-03-23T15:42:26;6.70;99.90
21417;DHT22;10869;52.238;10.716;2024-03-23T15:44:51;6.60;99.90
21417;DHT22;10869;52.238;10.716;2024-03-23T15:50:39;6.50;99.90
21417;DHT22;10869;52.238;10.716;2024-03-23T15:53:05;6.40;99.90
21417;DHT22;10869;52.238;10.716;2024-03-23T15:55:31;6.40;99.90
21417;DHT22;10869;52.238;10.716;2024-03-23T16:01:23;6.90;99.90
21417;DHT22;10869;52.238;10.716;2024-03-23T16:07:12;6.80;99.90
21417;DHT22;10869;52.238;10.716;2024-03-23T16:09:39;6.60;99.90
21417;DHT22;10869;52.238;10.716;2024-03-23T16:15:27;6.60;99.90
21417;DHT22;10869;52.238;10.716;2024-03-23T16:17:52;6.60;99.90
21417;DHT22;10869;52.238;10.716;2024-03-23T16:23:40;6.50;99.90
21417;DHT22;10869;52.238;10.716;2024-03-23T16:26:16;6.50;99.90
21417;DHT22;10869;52.238;10.716;2024-03-23T16:28:42;6.40;99.90
21417;DHT22;10869;52.238;10.716;2024-03-23T16:31:09;6.20;99.90
21417;DHT22;10869;52.238;10.716;2024-03-23T16:36:57;6.00;99.90
21417;DHT22;10869;52.238;10.716;2024-03-23T16:42:45;6.10;99.90
21417;DHT22;10869;52.238;10.716;2024-03-23T16:48:33;5.90;99.90
21417;DHT22;10869;52.238;10.716;2024-03-23T16:54:21;5.70;99.90
21417;DHT22;10869;52.238;10.716;2024-03-23T16:56:47;5.60;99.90
21417;DHT22;10869;52.238;10.716;2024-03-23T16:59:13;5.60;99.90
21417;DHT22;10869;52.238;10.716;2024-03-23T17:01:40;5.60;99.90
21417;DHT22;10869;52.238;10.716;2024-03-23T17:04:09;5.50;99.90
21417;DHT22;10869;52.238;10.716;2024-03-23T17:06:36;5.50;99.90
21417;DHT22;10869;52.238;10.716;2024-03-23T17:09:07;5.40;99.90
21417;DHT22;10869;52.238;10.716;2024-03-23T17:14:57;4.90;99.90
21417;DHT22;10869;52.238;10.716;2024-03-23T17:20:44;4.60;99.90
21417;DHT22;10869;52.238;10.716;2024-03-23T17:23:10;4.40;99.90
21417;DHT22;10869;52.238;10.716;2024-03-23T17:28:58;4.30;99.90
21417;DHT22;10869;52.238;10.716;2024-03-23T17:31:24;4.20;99.90
21417;DHT22;10869;52.238;10.716;2024-03-23T17:33:51;4.20;99.90
21417;DHT22;10869;52.238;10.716;2024-03-23T17:36:18;4.20;99.90
21417;DHT22;10869;52.238;10.716;2024-03-23T17:42:15;4.30;99.90
21417;DHT22;10869;52.238;10.716;2024-03-23T17:44:41;4.20;99.90
21417;DHT22;10869;52.238;10.716;2024-03-23T17:47:07;4.20;99.90
21417;DHT22;10869;52.238;10.716;2024-03-23T17:49:33;4.10;99.90
21417;DHT22;10869;52.238;10.716;2024-03-23T17:52:00;4.00;99.90
21417;DHT22;10869;52.238;10.716;2024-03-23T17:54:33;3.90;99.90
21417;DHT22;10869;52.238;10.716;2024-03-23T17:56:59;3.80;99.90
21417;DHT22;10869;52.238;10.716;2024-03-23T17:59:24;3.80;99.90
21417;DHT22;10869;52.238;10.716;2024-03-23T18:01:50;3.70;99.90
21417;DHT22;10869;52.238;10.716;2024-03-23T18:07:38;3.60;99.90
21417;DHT22;10869;52.238;10.716;2024-03-23T18:10:05;3.50;99.90
21417;DHT22;10869;52.238;10.716;2024-03-23T18:12:31;3.50;99.90
21417;DHT22;10869;52.238;10.716;2024-03-23T18:14:58;3.40;99.90
21417;DHT22;10869;52.238;10.716;2024-03-23T18:21:02;3.30;99.90
21417;DHT22;10869;52.238;10.716;2024-03-23T18:23:28;3.20;99.90
21417;DHT22;10869;52.238;10.716;2024-03-23T18:29:19;3.10;99.90
21417;DHT22;10869;52.238;10.716;2024-03-23T18:35:11;3.10;99.90
21417;DHT22;10869;52.238;10.716;2024-03-23T18:37:37;3.10;99.90
21417;DHT22;10869;52.238;10.716;2024-03-23T18:40:03;3.20;99.90
21417;DHT22;10869;52.238;10.716;2024-03-23T18:42:32;3.20;99.90
21417;DHT22;10869;52.238;10.716;2024-03-23T18:44:58;3.20;99.90
21417;DHT22;10869;52.238;10.716;2024-03-23T18:50:46;3.30;99.90
21417;DHT22;10869;52.238;10.716;2024-03-23T18:53:11;3.20;99.90
21417;DHT22;10869;52.238;10.716;2024-03-23T18:55:42;3.20;99.90
21417;DHT22;10869;52.238;10.716;2024-03-23T18:58:16;3.20;99.90
21417;DHT22;10869;52.238;10.716;2024-03-23T19:00:42;3.20;99.90
21417;DHT22;10869;52.238;10.716;2024-03-23T19:03:07;3.20;99.90
21417;DHT22;10869;52.238;10.716;2024-03-23T19:05:34;3.10;99.90
21417;DHT22;10869;52.238;10.716;2024-03-23T19:08:00;3.10;99.90
21417;DHT22;10869;52.238;10.716;2024-03-23T19:10:26;3.10;99.90
21417;DHT22;10869;52.238;10.716;2024-03-23T19:12:55;3.20;99.90
21417;DHT22;10869;52.238;10.716;2024-03-23T19:15:25;3.20;99.90
21417;DHT22;10869;52.238;10.716;2024-03-23T19:17:52;3.30;99.90
21417;DHT22;10869;52.238;10.716;2024-03-23T19:20:19;3.30;99.90
21417;DHT22;10869;52.238;10.716;2024-03-23T19:22:51;3.40;99.90
21417;DHT22;10869;52.238;10.716;2024-03-23T19:25:17;3.40;99.90
21417;DHT22;10869;52.238;10.716;2024-03-23T19:27:42;3.40;99.90
21417;DHT22;10869;52.238;10.716;2024-03-23T19:30:09;3.40;99.90
21417;DHT22;10869;52.238;10.716;2024-03-23T19:32:36;3.40;99.90
21417;DHT22;10869;52.238;10.716;2024-03-23T19:35:02;3.40;99.90
21417;DHT22;10869;52.238;10.716;2024-03-23T19:37:30;3.40;99.90
21417;DHT22;10869;52.238;10.716;2024-03-23T19:43:24;3.30;99.90
21417;DHT22;10869;52.238;10.716;2024-03-23T20:07:08;2.70;99.90
21417;DHT22;10869;52.238;10.716;2024-03-23T20:09:34;2.70;99.90
21417;DHT22;10869;52.238;10.716;2024-03-23T20:12:08;2.70;99.90
21417;DHT22;10869;52.238;10.716;2024-03-23T20:22:20;2.50;99.90
21417;DHT22;10869;52.238;10.716;2024-03-23T20:24:47;2.50;99.90
21417;DHT22;10869;52.238;10.716;2024-03-23T20:27:26;2.50;99.90
21417;DHT22;10869;52.238;10.716;2024-03-23T20:29:53;2.40;99.90
21417;DHT22;10869;52.238;10.716;2024-03-23T20:32:19;2.40;99.90
21417;DHT22;10869;52.238;10.716;2024-03-23T20:34:45;2.40;99.90
21417;DHT22;10869;52.238;10.716;2024-03-23T20:40:33;2.30;99.90
21417;DHT22;10869;52.238;10.716;2024-03-23T20:46:23;2.30;99.90
21417;DHT22;10869;52.238;10.716;2024-03-23T20:48:49;2.30;99.90